sensor_id;sensor_type;location;lat;lon;timestamp;P1;durP1;ratioP1;P2;durP2;ratioP2
24381;SDS011;12502;50.678;7.172;2022-11-23T00:04:34;7.95;;;1.75;;
24381;SDS011;12502;50.678;7.172;2022-11-23T00:09:36;11.18;;;1.85;;
24381;SDS011;12502;50.678;7.172;2022-11-23T00:14:38;4.10;;;1.70;;
24381;SDS011;12502;50.678;7.172;2022-11-23T00:19:40;7.05;;;1.95;;
24381;SDS011;12502;50.678;7.172;2022-11-23T00:24:41;7.32;;;2.17;;
24381;SDS011;12502;50.678;7.172;2022-11-23T00:29:43;5.82;;;2.05;;
24381;SDS011;12502;50.678;7.172;2022-11-23T00:34:45;4.47;;;1.85;;
24381;SDS011;12502;50.678;7.172;2022-11-23T00:39:47;6.05;;;2.10;;
24381;SDS011;12502;50.678;7.172;2022-11-23T00:44:48;9.23;;;2.95;;
24381;SDS011;12502;50.678;7.172;2022-11-23T00:49:50;8.25;;;2.45;;
24381;SDS011;12502;50.678;7.172;2022-11-23T00:54:52;6.75;;;2.13;;
24381;SDS011;12502;50.678;7.172;2022-11-23T00:59:53;8.43;;;2.33;;
24381;SDS011;12502;50.678;7.172;2022-11-23T01:04:56;7.53;;;1.88;;
24381;SDS011;12502;50.678;7.172;2022-11-23T01:09:58;5.88;;;2.10;;
24381;SDS011;12502;50.678;7.172;2022-11-23T01:15:00;7.90;;;2.20;;
24381;SDS011;12502;50.678;7.172;2022-11-23T01:20:01;5.80;;;1.67;;
24381;SDS011;12502;50.678;7.172;2022-11-23T01:25:03;6.50;;;1.75;;
24381;SDS011;12502;50.678;7.172;2022-11-23T01:30:06;6.80;;;1.80;;
24381;SDS011;12502;50.678;7.172;2022-11-23T01:35:08;9.02;;;2.60;;
24381;SDS011;12502;50.678;7.172;2022-11-23T01:40:10;7.38;;;1.67;;
24381;SDS011;12502;50.678;7.172;2022-11-23T01:45:32;7.55;;;2.40;;
24381;SDS011;12502;50.678;7.172;2022-11-23T01:50:41;7.10;;;2.03;;
24381;SDS011;12502;50.678;7.172;2022-11-23T01:55:45;4.75;;;1.73;;
24381;SDS011;12502;50.678;7.172;2022-11-23T02:00:49;10.43;;;2.20;;
24381;SDS011;12502;50.678;7.172;2022-11-23T02:05:52;7.97;;;2.20;;
24381;SDS011;12502;50.678;7.172;2022-11-23T02:11:00;7.22;;;1.98;;
24381;SDS011;12502;50.678;7.172;2022-11-23T02:16:02;6.82;;;2.20;;
24381;SDS011;12502;50.678;7.172;2022-11-23T02:21:04;5.30;;;1.98;;
24381;SDS011;12502;50.678;7.172;2022-11-23T02:26:07;7.05;;;1.80;;
24381;SDS011;12502;50.678;7.172;2022-11-23T02:31:13;7.22;;;2.15;;
24381;SDS011;12502;50.678;7.172;2022-11-23T02:41:54;8.70;;;2.40;;
24381;SDS011;12502;50.678;7.172;2022-11-23T02:46:56;8.00;;;2.08;;
24381;SDS011;12502;50.678;7.172;2022-11-23T02:51:58;5.85;;;2.00;;
24381;SDS011;12502;50.678;7.172;2022-11-23T02:57:00;7.88;;;1.98;;
24381;SDS011;12502;50.678;7.172;2022-11-23T03:02:03;9.20;;;2.00;;
24381;SDS011;12502;50.678;7.172;2022-11-23T03:07:05;8.60;;;1.90;;
24381;SDS011;12502;50.678;7.172;2022-11-23T03:12:07;9.90;;;2.80;;
24381;SDS011;12502;50.678;7.172;2022-11-23T03:17:08;6.22;;;2.08;;
24381;SDS011;12502;50.678;7.172;2022-11-23T03:22:10;10.20;;;1.70;;
24381;SDS011;12502;50.678;7.172;2022-11-23T03:27:12;9.50;;;1.95;;
24381;SDS011;12502;50.678;7.172;2022-11-23T03:32:14;7.63;;;2.00;;
24381;SDS011;12502;50.678;7.172;2022-11-23T03:37:15;12.18;;;2.58;;
24381;SDS011;12502;50.678;7.172;2022-11-23T03:42:17;10.57;;;2.28;;
24381;SDS011;12502;50.678;7.172;2022-11-23T03:47:19;6.85;;;2.20;;
24381;SDS011;12502;50.678;7.172;2022-11-23T03:52:20;8.95;;;2.10;;
24381;SDS011;12502;50.678;7.172;2022-11-23T03:57:22;5.90;;;2.13;;
24381;SDS011;12502;50.678;7.172;2022-11-23T04:02:25;10.85;;;2.50;;
24381;SDS011;12502;50.678;7.172;2022-11-23T04:07:26;6.57;;;1.70;;
24381;SDS011;12502;50.678;7.172;2022-11-23T04:12:28;7.40;;;2.20;;
24381;SDS011;12502;50.678;7.172;2022-11-23T04:17:31;12.57;;;2.30;;
24381;SDS011;12502;50.678;7.172;2022-11-23T04:22:33;6.50;;;1.75;;
24381;SDS011;12502;50.678;7.172;2022-11-23T04:27:34;9.35;;;2.42;;
24381;SDS011;12502;50.678;7.172;2022-11-23T04:32:36;8.15;;;2.47;;
24381;SDS011;12502;50.678;7.172;2022-11-23T04:37:38;12.27;;;3.00;;
24381;SDS011;12502;50.678;7.172;2022-11-23T04:42:39;11.85;;;2.33;;
24381;SDS011;12502;50.678;7.172;2022-11-23T04:47:41;14.15;;;2.83;;
24381;SDS011;12502;50.678;7.172;2022-11-23T04:52:44;11.15;;;1.83;;
24381;SDS011;12502;50.678;7.172;2022-11-23T04:57:45;10.13;;;2.35;;
24381;SDS011;12502;50.678;7.172;2022-11-23T05:02:47;5.97;;;1.60;;
24381;SDS011;12502;50.678;7.172;2022-11-23T05:07:49;8.43;;;2.00;;
24381;SDS011;12502;50.678;7.172;2022-11-23T05:12:50;5.50;;;1.50;;
24381;SDS011;12502;50.678;7.172;2022-11-23T05:17:52;12.43;;;2.60;;
24381;SDS011;12502;50.678;7.172;2022-11-23T05:22:59;10.48;;;1.90;;
24381;SDS011;12502;50.678;7.172;2022-11-23T05:28:01;14.13;;;2.20;;
24381;SDS011;12502;50.678;7.172;2022-11-23T05:33:24;8.73;;;2.22;;
24381;SDS011;12502;50.678;7.172;2022-11-23T05:38:27;6.05;;;2.28;;
24381;SDS011;12502;50.678;7.172;2022-11-23T05:43:28;8.10;;;1.88;;
24381;SDS011;12502;50.678;7.172;2022-11-23T05:48:31;19.33;;;3.00;;
24381;SDS011;12502;50.678;7.172;2022-11-23T05:53:32;11.75;;;2.28;;
24381;SDS011;12502;50.678;7.172;2022-11-23T05:58:34;14.98;;;2.10;;
24381;SDS011;12502;50.678;7.172;2022-11-23T06:03:36;9.65;;;2.55;;
24381;SDS011;12502;50.678;7.172;2022-11-23T06:08:40;9.15;;;2.47;;
24381;SDS011;12502;50.678;7.172;2022-11-23T06:13:48;10.63;;;2.53;;
24381;SDS011;12502;50.678;7.172;2022-11-23T06:18:50;8.50;;;2.80;;
24381;SDS011;12502;50.678;7.172;2022-11-23T06:23:51;10.77;;;2.53;;
24381;SDS011;12502;50.678;7.172;2022-11-23T06:28:56;14.15;;;2.53;;
24381;SDS011;12502;50.678;7.172;2022-11-23T06:33:59;9.65;;;2.28;;
24381;SDS011;12502;50.678;7.172;2022-11-23T06:39:00;7.07;;;2.38;;
24381;SDS011;12502;50.678;7.172;2022-11-23T06:44:03;10.27;;;3.00;;
24381;SDS011;12502;50.678;7.172;2022-11-23T06:49:05;9.35;;;2.75;;
24381;SDS011;12502;50.678;7.172;2022-11-23T06:54:11;15.93;;;2.58;;
24381;SDS011;12502;50.678;7.172;2022-11-23T06:59:27;12.90;;;3.45;;
24381;SDS011;12502;50.678;7.172;2022-11-23T07:04:29;9.68;;;2.95;;
24381;SDS011;12502;50.678;7.172;2022-11-23T07:09:30;12.10;;;3.10;;
24381;SDS011;12502;50.678;7.172;2022-11-23T07:14:33;11.52;;;3.70;;
24381;SDS011;12502;50.678;7.172;2022-11-23T07:19:35;8.63;;;3.15;;
24381;SDS011;12502;50.678;7.172;2022-11-23T07:24:37;13.40;;;2.88;;
24381;SDS011;12502;50.678;7.172;2022-11-23T07:29:45;13.85;;;3.35;;
24381;SDS011;12502;50.678;7.172;2022-11-23T07:34:47;13.93;;;2.83;;
24381;SDS011;12502;50.678;7.172;2022-11-23T07:39:51;9.23;;;3.05;;
24381;SDS011;12502;50.678;7.172;2022-11-23T07:44:59;15.27;;;3.45;;
24381;SDS011;12502;50.678;7.172;2022-11-23T07:50:14;13.25;;;3.05;;
24381;SDS011;12502;50.678;7.172;2022-11-23T07:55:21;12.13;;;2.85;;
24381;SDS011;12502;50.678;7.172;2022-11-23T08:00:24;16.30;;;2.90;;
24381;SDS011;12502;50.678;7.172;2022-11-23T08:05:27;13.10;;;2.90;;
24381;SDS011;12502;50.678;7.172;2022-11-23T08:10:29;9.15;;;2.97;;
24381;SDS011;12502;50.678;7.172;2022-11-23T08:15:32;17.55;;;3.40;;
24381;SDS011;12502;50.678;7.172;2022-11-23T08:20:34;18.25;;;2.67;;
24381;SDS011;12502;50.678;7.172;2022-11-23T08:25:36;13.48;;;3.53;;
24381;SDS011;12502;50.678;7.172;2022-11-23T08:30:38;11.70;;;2.85;;
24381;SDS011;12502;50.678;7.172;2022-11-23T08:35:40;11.55;;;2.88;;
24381;SDS011;12502;50.678;7.172;2022-11-23T08:40:42;15.30;;;2.85;;
24381;SDS011;12502;50.678;7.172;2022-11-23T08:45:44;9.95;;;2.60;;
24381;SDS011;12502;50.678;7.172;2022-11-23T08:50:46;14.88;;;3.00;;
24381;SDS011;12502;50.678;7.172;2022-11-23T08:55:47;13.32;;;3.20;;
24381;SDS011;12502;50.678;7.172;2022-11-23T09:00:49;14.88;;;2.90;;
24381;SDS011;12502;50.678;7.172;2022-11-23T09:05:51;16.08;;;3.83;;
24381;SDS011;12502;50.678;7.172;2022-11-23T09:10:58;10.67;;;2.77;;
24381;SDS011;12502;50.678;7.172;2022-11-23T09:16:04;10.13;;;3.38;;
24381;SDS011;12502;50.678;7.172;2022-11-23T09:21:08;16.48;;;3.15;;
24381;SDS011;12502;50.678;7.172;2022-11-23T09:26:10;6.87;;;2.33;;
24381;SDS011;12502;50.678;7.172;2022-11-23T09:31:12;12.60;;;3.35;;
24381;SDS011;12502;50.678;7.172;2022-11-23T09:36:14;9.32;;;2.92;;
24381;SDS011;12502;50.678;7.172;2022-11-23T09:52:15;12.73;;;2.67;;
24381;SDS011;12502;50.678;7.172;2022-11-23T09:57:20;12.23;;;3.28;;
24381;SDS011;12502;50.678;7.172;2022-11-23T10:02:31;12.25;;;2.38;;
24381;SDS011;12502;50.678;7.172;2022-11-23T10:18:07;7.55;;;2.47;;
24381;SDS011;12502;50.678;7.172;2022-11-23T10:28:44;8.57;;;2.22;;
24381;SDS011;12502;50.678;7.172;2022-11-23T10:39:10;7.78;;;2.10;;
24381;SDS011;12502;50.678;7.172;2022-11-23T10:49:29;8.00;;;2.35;;
24381;SDS011;12502;50.678;7.172;2022-11-23T11:00:00;12.40;;;2.77;;
24381;SDS011;12502;50.678;7.172;2022-11-23T11:05:33;12.20;;;2.60;;
24381;SDS011;12502;50.678;7.172;2022-11-23T11:11:04;9.05;;;2.28;;
24381;SDS011;12502;50.678;7.172;2022-11-23T11:16:29;5.47;;;2.25;;
24381;SDS011;12502;50.678;7.172;2022-11-23T11:21:39;8.20;;;2.33;;
24381;SDS011;12502;50.678;7.172;2022-11-23T11:26:49;9.50;;;2.47;;
24381;SDS011;12502;50.678;7.172;2022-11-23T11:42:58;7.15;;;1.80;;
24381;SDS011;12502;50.678;7.172;2022-11-23T11:53:19;6.53;;;2.65;;
24381;SDS011;12502;50.678;7.172;2022-11-23T11:58:27;7.95;;;2.50;;
24381;SDS011;12502;50.678;7.172;2022-11-23T12:03:50;6.47;;;2.35;;
24381;SDS011;12502;50.678;7.172;2022-11-23T12:09:00;11.18;;;3.60;;
24381;SDS011;12502;50.678;7.172;2022-11-23T12:14:10;7.70;;;3.42;;
24381;SDS011;12502;50.678;7.172;2022-11-23T12:19:16;9.68;;;3.95;;
24381;SDS011;12502;50.678;7.172;2022-11-23T12:24:26;9.02;;;3.65;;
24381;SDS011;12502;50.678;7.172;2022-11-23T12:56:54;6.20;;;2.78;;
24381;SDS011;12502;50.678;7.172;2022-11-23T13:02:13;7.53;;;2.45;;
24381;SDS011;12502;50.678;7.172;2022-11-23T13:07:41;5.93;;;2.50;;
24381;SDS011;12502;50.678;7.172;2022-11-23T13:18:40;6.60;;;1.90;;
24381;SDS011;12502;50.678;7.172;2022-11-23T13:24:22;4.75;;;2.00;;
24381;SDS011;12502;50.678;7.172;2022-11-23T13:34:51;8.75;;;2.30;;
24381;SDS011;12502;50.678;7.172;2022-11-23T13:50:22;5.30;;;1.98;;
24381;SDS011;12502;50.678;7.172;2022-11-23T13:55:36;10.38;;;1.85;;
24381;SDS011;12502;50.678;7.172;2022-11-23T14:00:49;9.13;;;2.17;;
24381;SDS011;12502;50.678;7.172;2022-11-23T14:05:55;5.35;;;1.50;;
24381;SDS011;12502;50.678;7.172;2022-11-23T14:11:08;5.05;;;1.70;;
24381;SDS011;12502;50.678;7.172;2022-11-23T14:16:15;5.50;;;2.05;;
24381;SDS011;12502;50.678;7.172;2022-11-23T14:21:37;8.00;;;1.65;;
24381;SDS011;12502;50.678;7.172;2022-11-23T14:27:09;7.93;;;2.15;;
24381;SDS011;12502;50.678;7.172;2022-11-23T14:43:41;6.68;;;1.85;;
24381;SDS011;12502;50.678;7.172;2022-11-23T14:48:46;6.13;;;1.70;;
24381;SDS011;12502;50.678;7.172;2022-11-23T14:53:56;6.72;;;1.60;;
24381;SDS011;12502;50.678;7.172;2022-11-23T14:59:06;3.17;;;1.60;;
24381;SDS011;12502;50.678;7.172;2022-11-23T15:04:25;4.38;;;1.70;;
24381;SDS011;12502;50.678;7.172;2022-11-23T15:14:48;6.47;;;2.10;;
24381;SDS011;12502;50.678;7.172;2022-11-23T15:19:55;10.68;;;2.03;;
24381;SDS011;12502;50.678;7.172;2022-11-23T15:25:04;7.15;;;1.83;;
24381;SDS011;12502;50.678;7.172;2022-11-23T15:30:21;7.15;;;2.00;;
24381;SDS011;12502;50.678;7.172;2022-11-23T15:35:33;6.88;;;2.13;;
24381;SDS011;12502;50.678;7.172;2022-11-23T15:40:36;12.40;;;1.85;;
24381;SDS011;12502;50.678;7.172;2022-11-23T15:45:57;7.22;;;2.22;;
24381;SDS011;12502;50.678;7.172;2022-11-23T15:51:04;7.38;;;2.38;;
24381;SDS011;12502;50.678;7.172;2022-11-23T15:56:12;8.57;;;2.05;;
24381;SDS011;12502;50.678;7.172;2022-11-23T16:01:44;6.45;;;1.70;;
24381;SDS011;12502;50.678;7.172;2022-11-23T16:06:46;7.93;;;2.33;;
24381;SDS011;12502;50.678;7.172;2022-11-23T16:11:48;8.50;;;2.17;;
24381;SDS011;12502;50.678;7.172;2022-11-23T16:22:16;8.30;;;2.53;;
24381;SDS011;12502;50.678;7.172;2022-11-23T16:27:30;8.38;;;2.65;;
24381;SDS011;12502;50.678;7.172;2022-11-23T16:32:33;9.30;;;2.40;;
24381;SDS011;12502;50.678;7.172;2022-11-23T16:37:36;8.48;;;3.40;;
24381;SDS011;12502;50.678;7.172;2022-11-23T16:42:37;10.98;;;2.90;;
24381;SDS011;12502;50.678;7.172;2022-11-23T16:47:52;12.02;;;4.35;;
24381;SDS011;12502;50.678;7.172;2022-11-23T16:52:56;11.80;;;3.97;;
24381;SDS011;12502;50.678;7.172;2022-11-23T16:58:02;11.57;;;3.15;;
24381;SDS011;12502;50.678;7.172;2022-11-23T17:03:04;10.70;;;4.13;;
24381;SDS011;12502;50.678;7.172;2022-11-23T17:08:05;5.85;;;2.95;;
24381;SDS011;12502;50.678;7.172;2022-11-23T17:13:11;6.53;;;2.53;;
24381;SDS011;12502;50.678;7.172;2022-11-23T17:18:22;12.02;;;3.33;;
24381;SDS011;12502;50.678;7.172;2022-11-23T17:23:24;7.72;;;2.50;;
24381;SDS011;12502;50.678;7.172;2022-11-23T17:28:26;6.65;;;2.88;;
24381;SDS011;12502;50.678;7.172;2022-11-23T17:33:28;7.13;;;2.70;;
24381;SDS011;12502;50.678;7.172;2022-11-23T17:38:30;8.82;;;2.50;;
24381;SDS011;12502;50.678;7.172;2022-11-23T17:43:32;5.60;;;2.88;;
24381;SDS011;12502;50.678;7.172;2022-11-23T17:48:34;8.20;;;3.33;;
24381;SDS011;12502;50.678;7.172;2022-11-23T17:53:35;8.93;;;3.70;;
24381;SDS011;12502;50.678;7.172;2022-11-23T17:58:37;15.13;;;5.85;;
24381;SDS011;12502;50.678;7.172;2022-11-23T18:03:39;12.65;;;5.38;;
24381;SDS011;12502;50.678;7.172;2022-11-23T18:08:42;12.35;;;6.00;;
24381;SDS011;12502;50.678;7.172;2022-11-23T18:13:44;12.73;;;6.10;;
24381;SDS011;12502;50.678;7.172;2022-11-23T18:18:48;10.93;;;5.07;;
24381;SDS011;12502;50.678;7.172;2022-11-23T18:23:51;11.48;;;5.20;;
24381;SDS011;12502;50.678;7.172;2022-11-23T18:28:52;13.30;;;5.20;;
24381;SDS011;12502;50.678;7.172;2022-11-23T18:33:54;11.90;;;5.25;;
24381;SDS011;12502;50.678;7.172;2022-11-23T18:38:56;11.38;;;5.28;;
24381;SDS011;12502;50.678;7.172;2022-11-23T18:43:58;11.75;;;4.70;;
24381;SDS011;12502;50.678;7.172;2022-11-23T18:49:00;9.57;;;4.18;;
24381;SDS011;12502;50.678;7.172;2022-11-23T18:54:01;12.10;;;4.60;;
24381;SDS011;12502;50.678;7.172;2022-11-23T18:59:05;11.45;;;4.38;;
24381;SDS011;12502;50.678;7.172;2022-11-23T19:04:07;9.45;;;4.47;;
24381;SDS011;12502;50.678;7.172;2022-11-23T19:09:09;10.00;;;4.43;;
24381;SDS011;12502;50.678;7.172;2022-11-23T19:14:11;8.93;;;4.55;;
24381;SDS011;12502;50.678;7.172;2022-11-23T19:19:13;7.78;;;4.47;;
24381;SDS011;12502;50.678;7.172;2022-11-23T19:24:17;6.63;;;4.50;;
24381;SDS011;12502;50.678;7.172;2022-11-23T19:29:19;10.65;;;3.78;;
24381;SDS011;12502;50.678;7.172;2022-11-23T19:34:25;5.00;;;3.00;;
24381;SDS011;12502;50.678;7.172;2022-11-23T19:39:26;6.32;;;2.65;;
24381;SDS011;12502;50.678;7.172;2022-11-23T19:44:28;6.72;;;3.05;;
24381;SDS011;12502;50.678;7.172;2022-11-23T19:49:30;6.00;;;3.38;;
24381;SDS011;12502;50.678;7.172;2022-11-23T19:54:32;6.20;;;4.32;;
24381;SDS011;12502;50.678;7.172;2022-11-23T19:59:33;7.78;;;4.82;;
24381;SDS011;12502;50.678;7.172;2022-11-23T20:04:36;12.65;;;6.32;;
24381;SDS011;12502;50.678;7.172;2022-11-23T20:09:37;14.40;;;6.13;;
24381;SDS011;12502;50.678;7.172;2022-11-23T20:14:39;10.93;;;5.78;;
24381;SDS011;12502;50.678;7.172;2022-11-23T20:19:41;10.65;;;6.57;;
24381;SDS011;12502;50.678;7.172;2022-11-23T20:24:43;10.32;;;6.07;;
24381;SDS011;12502;50.678;7.172;2022-11-23T20:29:44;12.48;;;7.10;;
24381;SDS011;12502;50.678;7.172;2022-11-23T20:34:46;13.27;;;6.35;;
24381;SDS011;12502;50.678;7.172;2022-11-23T20:39:48;11.48;;;6.70;;
24381;SDS011;12502;50.678;7.172;2022-11-23T20:44:49;12.10;;;6.60;;
24381;SDS011;12502;50.678;7.172;2022-11-23T20:49:51;12.45;;;7.60;;
24381;SDS011;12502;50.678;7.172;2022-11-23T20:54:53;17.58;;;6.97;;
24381;SDS011;12502;50.678;7.172;2022-11-23T20:59:54;12.70;;;6.95;;
24381;SDS011;12502;50.678;7.172;2022-11-23T21:04:56;12.70;;;6.88;;
24381;SDS011;12502;50.678;7.172;2022-11-23T21:09:59;14.98;;;7.45;;
24381;SDS011;12502;50.678;7.172;2022-11-23T21:15:00;13.63;;;7.18;;
24381;SDS011;12502;50.678;7.172;2022-11-23T21:20:02;18.58;;;8.48;;
24381;SDS011;12502;50.678;7.172;2022-11-23T21:25:04;19.02;;;9.10;;
24381;SDS011;12502;50.678;7.172;2022-11-23T21:30:06;17.13;;;8.20;;
24381;SDS011;12502;50.678;7.172;2022-11-23T21:35:09;16.48;;;8.23;;
24381;SDS011;12502;50.678;7.172;2022-11-23T21:40:11;13.70;;;8.25;;
24381;SDS011;12502;50.678;7.172;2022-11-23T21:45:13;20.33;;;8.38;;
24381;SDS011;12502;50.678;7.172;2022-11-23T21:50:15;20.58;;;8.45;;
24381;SDS011;12502;50.678;7.172;2022-11-23T21:55:16;17.75;;;9.23;;
24381;SDS011;12502;50.678;7.172;2022-11-23T22:00:18;19.95;;;9.15;;
24381;SDS011;12502;50.678;7.172;2022-11-23T22:05:20;19.95;;;8.55;;
24381;SDS011;12502;50.678;7.172;2022-11-23T22:10:22;17.38;;;8.95;;
24381;SDS011;12502;50.678;7.172;2022-11-23T22:15:23;21.30;;;8.63;;
24381;SDS011;12502;50.678;7.172;2022-11-23T22:20:26;20.55;;;8.48;;
24381;SDS011;12502;50.678;7.172;2022-11-23T22:25:28;17.52;;;8.05;;
24381;SDS011;12502;50.678;7.172;2022-11-23T22:30:30;21.52;;;8.77;;
24381;SDS011;12502;50.678;7.172;2022-11-23T22:35:32;20.00;;;8.40;;
24381;SDS011;12502;50.678;7.172;2022-11-23T22:40:34;17.27;;;8.52;;
24381;SDS011;12502;50.678;7.172;2022-11-23T22:45:36;16.77;;;7.80;;
24381;SDS011;12502;50.678;7.172;2022-11-23T22:50:37;19.70;;;9.10;;
24381;SDS011;12502;50.678;7.172;2022-11-23T22:55:39;20.45;;;7.72;;
24381;SDS011;12502;50.678;7.172;2022-11-23T23:00:41;18.25;;;7.88;;
24381;SDS011;12502;50.678;7.172;2022-11-23T23:05:42;17.10;;;6.50;;
24381;SDS011;12502;50.678;7.172;2022-11-23T23:11:01;20.65;;;6.57;;
24381;SDS011;12502;50.678;7.172;2022-11-23T23:16:12;18.00;;;6.20;;
24381;SDS011;12502;50.678;7.172;2022-11-23T23:21:18;15.35;;;6.93;;
24381;SDS011;12502;50.678;7.172;2022-11-23T23:26:22;21.85;;;6.80;;
24381;SDS011;12502;50.678;7.172;2022-11-23T23:31:26;14.85;;;4.65;;
24381;SDS011;12502;50.678;7.172;2022-11-23T23:36:29;20.70;;;6.07;;
24381;SDS011;12502;50.678;7.172;2022-11-23T23:41:30;19.02;;;5.63;;
24381;SDS011;12502;50.678;7.172;2022-11-23T23:46:32;18.73;;;6.70;;
24381;SDS011;12502;50.678;7.172;2022-11-23T23:51:34;21.42;;;6.15;;
24381;SDS011;12502;50.678;7.172;2022-11-23T23:56:36;14.80;;;6.78;;
